sensor_id;sensor_type;location;lat;lon;timestamp;temperature;humidity
60723;DHT22;46574;52.818;6.516;2022-12-07T00:00:28;4.20;99.90
60723;DHT22;46574;52.818;6.516;2022-12-07T00:02:53;4.20;99.90
60723;DHT22;46574;52.818;6.516;2022-12-07T00:05:19;4.10;99.90
60723;DHT22;46574;52.818;6.516;2022-12-07T00:07:45;4.10;99.90
60723;DHT22;46574;52.818;6.516;2022-12-07T00:10:10;4.10;99.90
60723;DHT22;46574;52.818;6.516;2022-12-07T00:12:36;4.00;99.90
60723;DHT22;46574;52.818;6.516;2022-12-07T00:15:02;4.00;99.90
60723;DHT22;46574;52.818;6.516;2022-12-07T00:17:27;4.00;99.90
60723;DHT22;46574;52.818;6.516;2022-12-07T00:19:53;4.00;99.90
60723;DHT22;46574;52.818;6.516;2022-12-07T00:22:19;4.00;99.90
60723;DHT22;46574;52.818;6.516;2022-12-07T00:24:44;3.90;99.90
60723;DHT22;46574;52.818;6.516;2022-12-07T00:27:10;4.00;99.90
60723;DHT22;46574;52.818;6.516;2022-12-07T00:29:35;4.00;99.90
60723;DHT22;46574;52.818;6.516;2022-12-07T00:32:03;4.00;99.90
60723;DHT22;46574;52.818;6.516;2022-12-07T00:34:29;4.00;99.90
60723;DHT22;46574;52.818;6.516;2022-12-07T00:36:54;4.10;99.90
60723;DHT22;46574;52.818;6.516;2022-12-07T00:39:20;4.20;99.90
60723;DHT22;46574;52.818;6.516;2022-12-07T00:41:46;4.20;99.90
60723;DHT22;46574;52.818;6.516;2022-12-07T00:44:11;4.30;99.90
60723;DHT22;46574;52.818;6.516;2022-12-07T00:46:37;4.30;99.90
60723;DHT22;46574;52.818;6.516;2022-12-07T00:49:03;4.30;99.90
60723;DHT22;46574;52.818;6.516;2022-12-07T00:51:28;4.30;99.90
60723;DHT22;46574;52.818;6.516;2022-12-07T00:53:54;4.30;99.90
60723;DHT22;46574;52.818;6.516;2022-12-07T00:56:23;4.30;99.90
60723;DHT22;46574;52.818;6.516;2022-12-07T00:58:53;4.30;99.90
60723;DHT22;46574;52.818;6.516;2022-12-07T01:01:19;4.30;99.90
60723;DHT22;46574;52.818;6.516;2022-12-07T01:03:45;4.30;99.90
60723;DHT22;46574;52.818;6.516;2022-12-07T01:06:14;4.30;99.90
60723;DHT22;46574;52.818;6.516;2022-12-07T01:08:40;4.30;99.90
60723;DHT22;46574;52.818;6.516;2022-12-07T01:11:07;4.30;99.90
60723;DHT22;46574;52.818;6.516;2022-12-07T01:13:35;4.30;99.90
60723;DHT22;46574;52.818;6.516;2022-12-07T01:16:04;4.30;99.90
60723;DHT22;46574;52.818;6.516;2022-12-07T01:18:31;4.30;99.90
60723;DHT22;46574;52.818;6.516;2022-12-07T01:21:03;4.30;99.90
60723;DHT22;46574;52.818;6.516;2022-12-07T01:23:30;4.30;99.90
60723;DHT22;46574;52.818;6.516;2022-12-07T01:25:57;4.30;99.90
60723;DHT22;46574;52.818;6.516;2022-12-07T01:28:23;4.30;99.90
60723;DHT22;46574;52.818;6.516;2022-12-07T01:31:00;4.20;99.90
60723;DHT22;46574;52.818;6.516;2022-12-07T01:33:27;4.20;99.90
60723;DHT22;46574;52.818;6.516;2022-12-07T01:35:54;4.20;99.90
60723;DHT22;46574;52.818;6.516;2022-12-07T01:38:20;4.30;99.90
60723;DHT22;46574;52.818;6.516;2022-12-07T01:40:45;4.30;99.90
60723;DHT22;46574;52.818;6.516;2022-12-07T01:43:20;4.40;99.90
60723;DHT22;46574;52.818;6.516;2022-12-07T01:45:46;4.50;99.90
60723;DHT22;46574;52.818;6.516;2022-12-07T01:48:14;4.50;99.90
60723;DHT22;46574;52.818;6.516;2022-12-07T01:50:43;4.50;99.90
60723;DHT22;46574;52.818;6.516;2022-12-07T01:53:10;4.40;99.90
60723;DHT22;46574;52.818;6.516;2022-12-07T01:55:40;4.40;99.90
60723;DHT22;46574;52.818;6.516;2022-12-07T01:58:07;4.30;99.90
60723;DHT22;46574;52.818;6.516;2022-12-07T02:00:33;4.30;99.90
60723;DHT22;46574;52.818;6.516;2022-12-07T02:03:16;4.30;99.90
60723;DHT22;46574;52.818;6.516;2022-12-07T02:05:45;4.20;99.90
60723;DHT22;46574;52.818;6.516;2022-12-07T02:08:12;4.20;99.90
60723;DHT22;46574;52.818;6.516;2022-12-07T02:10:39;4.20;99.90
60723;DHT22;46574;52.818;6.516;2022-12-07T02:13:24;4.10;99.90
60723;DHT22;46574;52.818;6.516;2022-12-07T02:21:39;4.00;99.90
60723;DHT22;46574;52.818;6.516;2022-12-07T02:30:05;3.90;99.90
60723;DHT22;46574;52.818;6.516;2022-12-07T02:36:16;3.80;99.90
60723;DHT22;46574;52.818;6.516;2022-12-07T02:38:25;3.80;99.90
60723;DHT22;46574;52.818;6.516;2022-12-07T02:41:07;3.70;99.90
60723;DHT22;46574;52.818;6.516;2022-12-07T02:43:39;3.80;99.90
60723;DHT22;46574;52.818;6.516;2022-12-07T02:46:11;3.70;99.90
60723;DHT22;46574;52.818;6.516;2022-12-07T02:48:40;3.70;99.90
60723;DHT22;46574;52.818;6.516;2022-12-07T02:51:25;3.80;99.90
60723;DHT22;46574;52.818;6.516;2022-12-07T02:53:51;3.80;99.90
60723;DHT22;46574;52.818;6.516;2022-12-07T03:02:05;3.80;99.90
60723;DHT22;46574;52.818;6.516;2022-12-07T03:07:18;4.10;99.90
60723;DHT22;46574;52.818;6.516;2022-12-07T03:09:53;4.10;99.90
60723;DHT22;46574;52.818;6.516;2022-12-07T03:12:42;4.10;99.90
60723;DHT22;46574;52.818;6.516;2022-12-07T03:15:17;4.10;99.90
60723;DHT22;46574;52.818;6.516;2022-12-07T03:17:45;4.00;99.90
60723;DHT22;46574;52.818;6.516;2022-12-07T03:20:14;4.00;99.90
60723;DHT22;46574;52.818;6.516;2022-12-07T03:22:41;4.00;99.90
60723;DHT22;46574;52.818;6.516;2022-12-07T03:25:11;4.00;99.90
60723;DHT22;46574;52.818;6.516;2022-12-07T03:30:15;3.90;99.90
60723;DHT22;46574;52.818;6.516;2022-12-07T03:35:30;3.90;99.90
60723;DHT22;46574;52.818;6.516;2022-12-07T03:38:17;3.90;99.90
60723;DHT22;46574;52.818;6.516;2022-12-07T03:40:48;3.90;99.90
60723;DHT22;46574;52.818;6.516;2022-12-07T03:43:17;3.90;99.90
60723;DHT22;46574;52.818;6.516;2022-12-07T03:45:52;3.80;99.90
60723;DHT22;46574;52.818;6.516;2022-12-07T03:48:28;3.80;99.90
60723;DHT22;46574;52.818;6.516;2022-12-07T03:51:13;3.80;99.90
60723;DHT22;46574;52.818;6.516;2022-12-07T03:54:04;3.80;99.90
60723;DHT22;46574;52.818;6.516;2022-12-07T03:56:31;3.70;99.90
60723;DHT22;46574;52.818;6.516;2022-12-07T03:58:58;3.70;99.90
60723;DHT22;46574;52.818;6.516;2022-12-07T04:01:24;3.70;99.90
60723;DHT22;46574;52.818;6.516;2022-12-07T04:03:50;3.70;99.90
60723;DHT22;46574;52.818;6.516;2022-12-07T04:06:16;3.70;99.90
60723;DHT22;46574;52.818;6.516;2022-12-07T04:08:42;3.70;99.90
60723;DHT22;46574;52.818;6.516;2022-12-07T04:11:07;3.70;99.90
60723;DHT22;46574;52.818;6.516;2022-12-07T04:13:33;3.60;99.90
60723;DHT22;46574;52.818;6.516;2022-12-07T04:16:19;3.60;99.90
60723;DHT22;46574;52.818;6.516;2022-12-07T04:18:45;3.50;99.90
60723;DHT22;46574;52.818;6.516;2022-12-07T04:21:10;3.50;99.90
60723;DHT22;46574;52.818;6.516;2022-12-07T04:23:36;3.50;99.90
60723;DHT22;46574;52.818;6.516;2022-12-07T04:26:01;3.50;99.90
60723;DHT22;46574;52.818;6.516;2022-12-07T04:28:27;3.50;99.90
60723;DHT22;46574;52.818;6.516;2022-12-07T04:30:52;3.40;99.90
60723;DHT22;46574;52.818;6.516;2022-12-07T04:33:18;3.40;99.90
60723;DHT22;46574;52.818;6.516;2022-12-07T04:35:44;3.40;99.90
60723;DHT22;46574;52.818;6.516;2022-12-07T04:38:09;3.40;99.90
60723;DHT22;46574;52.818;6.516;2022-12-07T04:40:35;3.40;99.90
60723;DHT22;46574;52.818;6.516;2022-12-07T04:43:00;3.40;99.90
60723;DHT22;46574;52.818;6.516;2022-12-07T04:45:26;3.50;99.90
60723;DHT22;46574;52.818;6.516;2022-12-07T04:47:52;3.50;99.90
60723;DHT22;46574;52.818;6.516;2022-12-07T04:50:17;3.50;99.90
60723;DHT22;46574;52.818;6.516;2022-12-07T04:52:43;3.50;99.90
60723;DHT22;46574;52.818;6.516;2022-12-07T04:55:09;3.60;99.90
60723;DHT22;46574;52.818;6.516;2022-12-07T04:57:34;3.60;99.90
60723;DHT22;46574;52.818;6.516;2022-12-07T05:00:00;3.70;99.90
60723;DHT22;46574;52.818;6.516;2022-12-07T05:02:26;3.80;99.90
60723;DHT22;46574;52.818;6.516;2022-12-07T05:04:51;3.80;99.90
60723;DHT22;46574;52.818;6.516;2022-12-07T05:07:17;3.80;99.90
60723;DHT22;46574;52.818;6.516;2022-12-07T05:09:42;3.70;99.90
60723;DHT22;46574;52.818;6.516;2022-12-07T05:12:08;3.70;99.90
60723;DHT22;46574;52.818;6.516;2022-12-07T05:14:34;3.60;99.90
60723;DHT22;46574;52.818;6.516;2022-12-07T05:16:59;3.60;99.90
60723;DHT22;46574;52.818;6.516;2022-12-07T05:19:25;3.60;99.90
60723;DHT22;46574;52.818;6.516;2022-12-07T05:21:51;3.60;99.90
60723;DHT22;46574;52.818;6.516;2022-12-07T05:24:17;3.50;99.90
60723;DHT22;46574;52.818;6.516;2022-12-07T05:26:43;3.50;99.90
60723;DHT22;46574;52.818;6.516;2022-12-07T05:29:12;3.40;99.90
60723;DHT22;46574;52.818;6.516;2022-12-07T05:31:38;3.50;99.90
60723;DHT22;46574;52.818;6.516;2022-12-07T05:34:03;3.40;99.90
60723;DHT22;46574;52.818;6.516;2022-12-07T05:36:29;3.40;99.90
60723;DHT22;46574;52.818;6.516;2022-12-07T05:38:57;3.30;99.90
60723;DHT22;46574;52.818;6.516;2022-12-07T05:41:23;3.30;99.90
60723;DHT22;46574;52.818;6.516;2022-12-07T05:44:07;3.20;99.90
60723;DHT22;46574;52.818;6.516;2022-12-07T05:46:33;3.20;99.90
60723;DHT22;46574;52.818;6.516;2022-12-07T05:48:59;3.20;99.90
60723;DHT22;46574;52.818;6.516;2022-12-07T05:51:25;3.20;99.90
60723;DHT22;46574;52.818;6.516;2022-12-07T05:53:51;3.20;99.90
60723;DHT22;46574;52.818;6.516;2022-12-07T05:56:16;3.20;99.90
60723;DHT22;46574;52.818;6.516;2022-12-07T05:58:42;3.20;99.90
60723;DHT22;46574;52.818;6.516;2022-12-07T06:01:26;3.10;99.90
60723;DHT22;46574;52.818;6.516;2022-12-07T06:03:52;3.20;99.90
60723;DHT22;46574;52.818;6.516;2022-12-07T06:06:17;3.10;99.90
60723;DHT22;46574;52.818;6.516;2022-12-07T06:08:43;3.10;99.90
60723;DHT22;46574;52.818;6.516;2022-12-07T06:11:09;3.10;99.90
60723;DHT22;46574;52.818;6.516;2022-12-07T06:13:53;3.20;99.90
60723;DHT22;46574;52.818;6.516;2022-12-07T06:16:18;3.10;99.90
60723;DHT22;46574;52.818;6.516;2022-12-07T06:18:44;3.00;99.90
60723;DHT22;46574;52.818;6.516;2022-12-07T06:21:10;3.00;99.90
60723;DHT22;46574;52.818;6.516;2022-12-07T06:23:35;3.00;99.90
60723;DHT22;46574;52.818;6.516;2022-12-07T06:26:01;3.10;99.90
60723;DHT22;46574;52.818;6.516;2022-12-07T06:28:29;3.10;99.90
60723;DHT22;46574;52.818;6.516;2022-12-07T06:30:59;3.10;99.90
60723;DHT22;46574;52.818;6.516;2022-12-07T06:33:25;3.20;99.90
60723;DHT22;46574;52.818;6.516;2022-12-07T06:35:51;3.30;99.90
60723;DHT22;46574;52.818;6.516;2022-12-07T06:38:16;3.30;99.90
60723;DHT22;46574;52.818;6.516;2022-12-07T06:40:42;3.40;99.90
60723;DHT22;46574;52.818;6.516;2022-12-07T06:43:08;3.40;99.90
60723;DHT22;46574;52.818;6.516;2022-12-07T06:45:34;3.50;99.90
60723;DHT22;46574;52.818;6.516;2022-12-07T06:47:59;3.50;99.90
60723;DHT22;46574;52.818;6.516;2022-12-07T06:50:25;3.50;99.90
60723;DHT22;46574;52.818;6.516;2022-12-07T06:52:51;3.40;99.90
60723;DHT22;46574;52.818;6.516;2022-12-07T06:55:17;3.40;99.90
60723;DHT22;46574;52.818;6.516;2022-12-07T06:57:43;3.40;99.90
60723;DHT22;46574;52.818;6.516;2022-12-07T07:00:09;3.40;99.90
60723;DHT22;46574;52.818;6.516;2022-12-07T07:02:35;3.40;99.90
60723;DHT22;46574;52.818;6.516;2022-12-07T07:05:00;3.50;99.90
60723;DHT22;46574;52.818;6.516;2022-12-07T07:07:26;3.50;99.90
60723;DHT22;46574;52.818;6.516;2022-12-07T07:09:52;3.50;99.90
60723;DHT22;46574;52.818;6.516;2022-12-07T07:12:17;3.60;99.90
60723;DHT22;46574;52.818;6.516;2022-12-07T07:14:43;3.60;99.90
60723;DHT22;46574;52.818;6.516;2022-12-07T07:17:09;3.60;99.90
60723;DHT22;46574;52.818;6.516;2022-12-07T07:19:34;3.60;99.90
60723;DHT22;46574;52.818;6.516;2022-12-07T07:22:01;3.60;99.90
60723;DHT22;46574;52.818;6.516;2022-12-07T07:24:26;3.70;99.90
60723;DHT22;46574;52.818;6.516;2022-12-07T07:26:52;3.70;99.90
60723;DHT22;46574;52.818;6.516;2022-12-07T07:29:17;3.60;99.90
60723;DHT22;46574;52.818;6.516;2022-12-07T07:31:43;3.60;99.90
60723;DHT22;46574;52.818;6.516;2022-12-07T07:34:09;3.60;99.90
60723;DHT22;46574;52.818;6.516;2022-12-07T07:36:34;3.60;99.90
60723;DHT22;46574;52.818;6.516;2022-12-07T07:39:00;3.50;99.90
60723;DHT22;46574;52.818;6.516;2022-12-07T07:41:26;3.50;99.90
60723;DHT22;46574;52.818;6.516;2022-12-07T07:43:51;3.40;99.90
60723;DHT22;46574;52.818;6.516;2022-12-07T07:46:17;3.40;99.90
60723;DHT22;46574;52.818;6.516;2022-12-07T07:48:43;3.40;99.90
60723;DHT22;46574;52.818;6.516;2022-12-07T07:51:08;3.40;99.90
60723;DHT22;46574;52.818;6.516;2022-12-07T07:53:34;3.50;99.90
60723;DHT22;46574;52.818;6.516;2022-12-07T07:56:00;3.50;99.90
60723;DHT22;46574;52.818;6.516;2022-12-07T07:58:25;3.60;99.90
60723;DHT22;46574;52.818;6.516;2022-12-07T08:00:51;3.60;99.90
60723;DHT22;46574;52.818;6.516;2022-12-07T08:03:17;3.70;99.90
60723;DHT22;46574;52.818;6.516;2022-12-07T08:05:43;3.70;99.90
60723;DHT22;46574;52.818;6.516;2022-12-07T08:08:08;3.80;99.90
60723;DHT22;46574;52.818;6.516;2022-12-07T08:10:34;3.80;99.90
60723;DHT22;46574;52.818;6.516;2022-12-07T08:13:00;3.80;99.90
60723;DHT22;46574;52.818;6.516;2022-12-07T08:15:45;3.80;99.90
60723;DHT22;46574;52.818;6.516;2022-12-07T08:18:12;3.80;99.90
60723;DHT22;46574;52.818;6.516;2022-12-07T08:20:39;3.80;99.90
60723;DHT22;46574;52.818;6.516;2022-12-07T08:23:06;3.80;99.90
60723;DHT22;46574;52.818;6.516;2022-12-07T08:25:32;3.80;99.90
60723;DHT22;46574;52.818;6.516;2022-12-07T08:27:58;3.80;99.90
60723;DHT22;46574;52.818;6.516;2022-12-07T08:30:26;3.80;99.90
60723;DHT22;46574;52.818;6.516;2022-12-07T08:32:52;3.70;99.90
60723;DHT22;46574;52.818;6.516;2022-12-07T08:35:17;3.70;99.90
60723;DHT22;46574;52.818;6.516;2022-12-07T08:37:43;3.60;99.90
60723;DHT22;46574;52.818;6.516;2022-12-07T08:40:10;3.60;99.90
60723;DHT22;46574;52.818;6.516;2022-12-07T08:42:41;3.50;99.90
60723;DHT22;46574;52.818;6.516;2022-12-07T08:45:12;3.50;99.90
60723;DHT22;46574;52.818;6.516;2022-12-07T08:47:47;3.50;99.90
60723;DHT22;46574;52.818;6.516;2022-12-07T08:50:13;3.60;99.90
60723;DHT22;46574;52.818;6.516;2022-12-07T08:52:40;3.60;99.90
60723;DHT22;46574;52.818;6.516;2022-12-07T08:55:07;3.70;99.90
60723;DHT22;46574;52.818;6.516;2022-12-07T08:57:35;3.70;99.90
60723;DHT22;46574;52.818;6.516;2022-12-07T09:00:02;3.70;99.90
60723;DHT22;46574;52.818;6.516;2022-12-07T09:02:28;3.80;99.90
60723;DHT22;46574;52.818;6.516;2022-12-07T09:04:55;3.80;99.90
60723;DHT22;46574;52.818;6.516;2022-12-07T09:07:20;3.90;99.90
60723;DHT22;46574;52.818;6.516;2022-12-07T09:09:46;3.90;99.90
60723;DHT22;46574;52.818;6.516;2022-12-07T09:12:12;3.90;99.90
60723;DHT22;46574;52.818;6.516;2022-12-07T09:14:37;4.00;99.90
60723;DHT22;46574;52.818;6.516;2022-12-07T09:17:11;4.00;99.90
60723;DHT22;46574;52.818;6.516;2022-12-07T09:19:37;4.00;99.90
60723;DHT22;46574;52.818;6.516;2022-12-07T09:22:04;3.90;99.90
60723;DHT22;46574;52.818;6.516;2022-12-07T09:24:33;3.90;99.90
60723;DHT22;46574;52.818;6.516;2022-12-07T09:26:58;3.90;99.90
60723;DHT22;46574;52.818;6.516;2022-12-07T09:29:24;3.80;99.90
60723;DHT22;46574;52.818;6.516;2022-12-07T09:31:51;3.80;99.90
60723;DHT22;46574;52.818;6.516;2022-12-07T09:34:16;3.70;99.90
60723;DHT22;46574;52.818;6.516;2022-12-07T09:36:43;3.80;99.90
60723;DHT22;46574;52.818;6.516;2022-12-07T09:39:09;3.90;99.90
60723;DHT22;46574;52.818;6.516;2022-12-07T09:41:41;4.00;99.90
60723;DHT22;46574;52.818;6.516;2022-12-07T09:44:12;4.10;99.90
60723;DHT22;46574;52.818;6.516;2022-12-07T09:46:41;4.20;99.90
60723;DHT22;46574;52.818;6.516;2022-12-07T09:49:19;4.30;99.90
60723;DHT22;46574;52.818;6.516;2022-12-07T09:51:46;4.50;99.90
60723;DHT22;46574;52.818;6.516;2022-12-07T09:54:16;4.60;99.90
60723;DHT22;46574;52.818;6.516;2022-12-07T09:56:43;4.60;99.90
60723;DHT22;46574;52.818;6.516;2022-12-07T09:59:13;4.70;99.90
60723;DHT22;46574;52.818;6.516;2022-12-07T10:01:41;4.80;99.90
60723;DHT22;46574;52.818;6.516;2022-12-07T10:04:20;4.80;99.90
60723;DHT22;46574;52.818;6.516;2022-12-07T10:06:47;4.80;99.90
60723;DHT22;46574;52.818;6.516;2022-12-07T10:09:15;4.80;99.90
60723;DHT22;46574;52.818;6.516;2022-12-07T10:12:01;4.80;99.90
60723;DHT22;46574;52.818;6.516;2022-12-07T10:14:29;4.80;99.90
60723;DHT22;46574;52.818;6.516;2022-12-07T10:16:55;4.80;99.90
60723;DHT22;46574;52.818;6.516;2022-12-07T10:19:39;4.80;99.90
60723;DHT22;46574;52.818;6.516;2022-12-07T10:22:12;4.80;99.90
60723;DHT22;46574;52.818;6.516;2022-12-07T10:24:40;4.90;99.90
60723;DHT22;46574;52.818;6.516;2022-12-07T10:27:31;4.90;99.90
60723;DHT22;46574;52.818;6.516;2022-12-07T10:29:57;5.00;99.90
60723;DHT22;46574;52.818;6.516;2022-12-07T10:32:34;5.00;99.90
60723;DHT22;46574;52.818;6.516;2022-12-07T10:37:48;5.20;99.90
60723;DHT22;46574;52.818;6.516;2022-12-07T10:40:30;5.40;99.90
60723;DHT22;46574;52.818;6.516;2022-12-07T10:45:32;5.50;99.90
60723;DHT22;46574;52.818;6.516;2022-12-07T10:53:14;5.50;99.90
60723;DHT22;46574;52.818;6.516;2022-12-07T10:56:14;5.50;99.90
60723;DHT22;46574;52.818;6.516;2022-12-07T10:59:05;5.50;99.90
60723;DHT22;46574;52.818;6.516;2022-12-07T11:01:54;5.40;99.90
60723;DHT22;46574;52.818;6.516;2022-12-07T11:04:24;5.30;99.90
60723;DHT22;46574;52.818;6.516;2022-12-07T11:07:10;5.30;99.90
60723;DHT22;46574;52.818;6.516;2022-12-07T11:15:04;5.70;99.90
60723;DHT22;46574;52.818;6.516;2022-12-07T11:20:51;5.80;99.90
60723;DHT22;46574;52.818;6.516;2022-12-07T11:31:54;5.70;99.90
60723;DHT22;46574;52.818;6.516;2022-12-07T11:34:27;5.70;99.90
60723;DHT22;46574;52.818;6.516;2022-12-07T11:36:56;5.70;99.90
60723;DHT22;46574;52.818;6.516;2022-12-07T11:39:26;5.70;99.90
60723;DHT22;46574;52.818;6.516;2022-12-07T11:42:14;5.60;99.90
60723;DHT22;46574;52.818;6.516;2022-12-07T11:48:09;5.60;99.90
60723;DHT22;46574;52.818;6.516;2022-12-07T11:50:25;5.60;99.90
60723;DHT22;46574;52.818;6.516;2022-12-07T11:52:58;5.60;99.90
60723;DHT22;46574;52.818;6.516;2022-12-07T11:55:41;5.60;99.90
60723;DHT22;46574;52.818;6.516;2022-12-07T12:03:46;5.70;99.90
60723;DHT22;46574;52.818;6.516;2022-12-07T12:06:12;5.80;99.90
60723;DHT22;46574;52.818;6.516;2022-12-07T12:08:44;5.90;99.90
60723;DHT22;46574;52.818;6.516;2022-12-07T12:14:37;6.10;99.90
60723;DHT22;46574;52.818;6.516;2022-12-07T12:17:41;6.20;99.90
60723;DHT22;46574;52.818;6.516;2022-12-07T12:25:46;6.40;99.90
60723;DHT22;46574;52.818;6.516;2022-12-07T12:31:13;6.20;99.90
60723;DHT22;46574;52.818;6.516;2022-12-07T12:33:53;6.30;99.90
60723;DHT22;46574;52.818;6.516;2022-12-07T12:47:00;6.50;99.90
60723;DHT22;46574;52.818;6.516;2022-12-07T12:49:36;6.50;99.90
60723;DHT22;46574;52.818;6.516;2022-12-07T12:54:58;6.50;99.90
60723;DHT22;46574;52.818;6.516;2022-12-07T12:57:28;6.50;99.90
60723;DHT22;46574;52.818;6.516;2022-12-07T13:02:26;6.40;99.90
60723;DHT22;46574;52.818;6.516;2022-12-07T13:04:58;6.40;99.90
60723;DHT22;46574;52.818;6.516;2022-12-07T13:13:02;6.40;99.90
60723;DHT22;46574;52.818;6.516;2022-12-07T13:15:39;6.30;99.90
60723;DHT22;46574;52.818;6.516;2022-12-07T13:23:39;5.90;99.90
60723;DHT22;46574;52.818;6.516;2022-12-07T13:26:22;5.60;99.90
60723;DHT22;46574;52.818;6.516;2022-12-07T13:29:15;5.10;99.90
60723;DHT22;46574;52.818;6.516;2022-12-07T13:31:44;5.00;99.90
60723;DHT22;46574;52.818;6.516;2022-12-07T13:34:38;5.00;99.90
60723;DHT22;46574;52.818;6.516;2022-12-07T13:37:12;5.00;99.90
60723;DHT22;46574;52.818;6.516;2022-12-07T13:39:53;4.90;99.90
60723;DHT22;46574;52.818;6.516;2022-12-07T13:42:30;4.90;99.90
60723;DHT22;46574;52.818;6.516;2022-12-07T13:44:58;4.90;99.90
60723;DHT22;46574;52.818;6.516;2022-12-07T13:47:43;5.00;99.90
60723;DHT22;46574;52.818;6.516;2022-12-07T13:52:48;5.00;99.90
60723;DHT22;46574;52.818;6.516;2022-12-07T13:55:16;5.00;99.90
60723;DHT22;46574;52.818;6.516;2022-12-07T13:57:48;5.00;99.90
60723;DHT22;46574;52.818;6.516;2022-12-07T14:00:20;5.10;99.90
60723;DHT22;46574;52.818;6.516;2022-12-07T14:03:03;5.10;99.90
60723;DHT22;46574;52.818;6.516;2022-12-07T14:05:30;5.10;99.90
60723;DHT22;46574;52.818;6.516;2022-12-07T14:10:57;5.10;99.90
60723;DHT22;46574;52.818;6.516;2022-12-07T14:16:31;5.10;99.90
60723;DHT22;46574;52.818;6.516;2022-12-07T14:18:59;5.10;99.90
60723;DHT22;46574;52.818;6.516;2022-12-07T14:21:28;5.10;99.90
60723;DHT22;46574;52.818;6.516;2022-12-07T14:24:11;5.10;99.90
60723;DHT22;46574;52.818;6.516;2022-12-07T14:26:38;5.00;99.90
60723;DHT22;46574;52.818;6.516;2022-12-07T14:31:54;5.10;99.90
60723;DHT22;46574;52.818;6.516;2022-12-07T14:34:21;5.10;99.90
60723;DHT22;46574;52.818;6.516;2022-12-07T14:36:47;5.10;99.90
60723;DHT22;46574;52.818;6.516;2022-12-07T14:39:12;5.10;99.90
60723;DHT22;46574;52.818;6.516;2022-12-07T14:41:38;5.10;99.90
60723;DHT22;46574;52.818;6.516;2022-12-07T14:44:17;5.00;99.90
60723;DHT22;46574;52.818;6.516;2022-12-07T14:46:43;5.10;99.90
60723;DHT22;46574;52.818;6.516;2022-12-07T14:49:09;5.10;99.90
60723;DHT22;46574;52.818;6.516;2022-12-07T14:51:36;5.00;99.90
60723;DHT22;46574;52.818;6.516;2022-12-07T14:54:04;5.00;99.90
60723;DHT22;46574;52.818;6.516;2022-12-07T14:56:30;5.00;99.90
60723;DHT22;46574;52.818;6.516;2022-12-07T14:58:56;4.90;99.90
60723;DHT22;46574;52.818;6.516;2022-12-07T15:01:21;5.00;99.90
60723;DHT22;46574;52.818;6.516;2022-12-07T15:03:47;4.90;99.90
60723;DHT22;46574;52.818;6.516;2022-12-07T15:06:15;4.90;99.90
60723;DHT22;46574;52.818;6.516;2022-12-07T15:08:41;4.90;99.90
60723;DHT22;46574;52.818;6.516;2022-12-07T15:11:14;4.90;99.90
60723;DHT22;46574;52.818;6.516;2022-12-07T15:13:39;4.90;99.90
60723;DHT22;46574;52.818;6.516;2022-12-07T15:16:24;4.90;99.90
60723;DHT22;46574;52.818;6.516;2022-12-07T15:18:49;4.90;99.90
60723;DHT22;46574;52.818;6.516;2022-12-07T15:21:15;4.90;99.90
60723;DHT22;46574;52.818;6.516;2022-12-07T15:23:41;4.90;99.90
60723;DHT22;46574;52.818;6.516;2022-12-07T15:26:07;4.90;99.90
60723;DHT22;46574;52.818;6.516;2022-12-07T15:28:33;4.80;99.90
60723;DHT22;46574;52.818;6.516;2022-12-07T15:30:59;4.80;99.90
60723;DHT22;46574;52.818;6.516;2022-12-07T15:33:25;4.80;99.90
60723;DHT22;46574;52.818;6.516;2022-12-07T15:35:50;4.80;99.90
60723;DHT22;46574;52.818;6.516;2022-12-07T15:38:16;4.80;99.90
60723;DHT22;46574;52.818;6.516;2022-12-07T15:40:42;4.80;99.90
60723;DHT22;46574;52.818;6.516;2022-12-07T15:43:10;4.80;99.90
60723;DHT22;46574;52.818;6.516;2022-12-07T15:45:56;4.80;99.90
60723;DHT22;46574;52.818;6.516;2022-12-07T15:48:22;4.70;99.90
60723;DHT22;46574;52.818;6.516;2022-12-07T15:50:48;4.70;99.90
60723;DHT22;46574;52.818;6.516;2022-12-07T15:53:13;4.70;99.90
60723;DHT22;46574;52.818;6.516;2022-12-07T15:55:39;4.60;99.90
60723;DHT22;46574;52.818;6.516;2022-12-07T15:58:05;4.60;99.90
60723;DHT22;46574;52.818;6.516;2022-12-07T16:00:31;4.50;99.90
60723;DHT22;46574;52.818;6.516;2022-12-07T16:02:57;4.50;99.90
60723;DHT22;46574;52.818;6.516;2022-12-07T16:05:22;4.50;99.90
60723;DHT22;46574;52.818;6.516;2022-12-07T16:07:48;4.50;99.90
60723;DHT22;46574;52.818;6.516;2022-12-07T16:10:14;4.40;99.90
60723;DHT22;46574;52.818;6.516;2022-12-07T16:12:39;4.40;99.90
60723;DHT22;46574;52.818;6.516;2022-12-07T16:15:05;4.40;99.90
60723;DHT22;46574;52.818;6.516;2022-12-07T16:17:31;4.40;99.90
60723;DHT22;46574;52.818;6.516;2022-12-07T16:19:57;4.40;99.90
60723;DHT22;46574;52.818;6.516;2022-12-07T16:22:23;4.40;99.90
60723;DHT22;46574;52.818;6.516;2022-12-07T16:24:49;4.40;99.90
60723;DHT22;46574;52.818;6.516;2022-12-07T16:27:14;4.40;99.90
60723;DHT22;46574;52.818;6.516;2022-12-07T16:29:40;4.40;99.90
60723;DHT22;46574;52.818;6.516;2022-12-07T16:32:06;4.40;99.90
60723;DHT22;46574;52.818;6.516;2022-12-07T16:34:31;4.40;99.90
60723;DHT22;46574;52.818;6.516;2022-12-07T16:36:57;4.40;99.90
60723;DHT22;46574;52.818;6.516;2022-12-07T16:39:23;4.40;99.90
60723;DHT22;46574;52.818;6.516;2022-12-07T16:41:49;4.40;99.90
60723;DHT22;46574;52.818;6.516;2022-12-07T16:44:15;4.40;99.90
60723;DHT22;46574;52.818;6.516;2022-12-07T16:46:42;4.40;99.90
60723;DHT22;46574;52.818;6.516;2022-12-07T16:49:14;4.40;99.90
60723;DHT22;46574;52.818;6.516;2022-12-07T16:51:40;4.40;99.90
60723;DHT22;46574;52.818;6.516;2022-12-07T16:54:10;4.40;99.90
60723;DHT22;46574;52.818;6.516;2022-12-07T16:56:36;4.40;99.90
60723;DHT22;46574;52.818;6.516;2022-12-07T16:59:02;4.40;99.90
60723;DHT22;46574;52.818;6.516;2022-12-07T17:01:27;4.40;99.90
60723;DHT22;46574;52.818;6.516;2022-12-07T17:03:53;4.40;99.90
60723;DHT22;46574;52.818;6.516;2022-12-07T17:06:25;4.30;99.90
60723;DHT22;46574;52.818;6.516;2022-12-07T17:08:51;4.30;99.90
60723;DHT22;46574;52.818;6.516;2022-12-07T17:11:21;4.30;99.90
60723;DHT22;46574;52.818;6.516;2022-12-07T17:13:47;4.30;99.90
60723;DHT22;46574;52.818;6.516;2022-12-07T17:16:32;4.30;99.90
60723;DHT22;46574;52.818;6.516;2022-12-07T17:18:58;4.20;99.90
60723;DHT22;46574;52.818;6.516;2022-12-07T17:21:24;4.20;99.90
60723;DHT22;46574;52.818;6.516;2022-12-07T17:23:50;4.20;99.90
60723;DHT22;46574;52.818;6.516;2022-12-07T17:26:22;4.10;99.90
60723;DHT22;46574;52.818;6.516;2022-12-07T17:28:48;4.10;99.90
60723;DHT22;46574;52.818;6.516;2022-12-07T17:31:15;4.00;99.90
60723;DHT22;46574;52.818;6.516;2022-12-07T17:33:41;4.00;99.90
60723;DHT22;46574;52.818;6.516;2022-12-07T17:36:16;4.00;99.90
60723;DHT22;46574;52.818;6.516;2022-12-07T17:38:43;3.90;99.90
60723;DHT22;46574;52.818;6.516;2022-12-07T17:41:14;3.90;99.90
60723;DHT22;46574;52.818;6.516;2022-12-07T17:44:04;3.80;99.90
60723;DHT22;46574;52.818;6.516;2022-12-07T17:46:30;3.80;99.90
60723;DHT22;46574;52.818;6.516;2022-12-07T17:48:57;3.80;99.90
60723;DHT22;46574;52.818;6.516;2022-12-07T17:51:23;3.80;99.90